sensor_id;sensor_type;location;lat;lon;timestamp;pressure;altitude;pressure_sealevel;temperature;humidity
42111;BME280;27766;52.174;5.456;2022-11-20T00:01:25;101317.75;;;-3.79;100.00
42111;BME280;27766;52.174;5.456;2022-11-20T00:03:54;101311.78;;;-3.90;100.00
42111;BME280;27766;52.174;5.456;2022-11-20T00:06:22;101317.47;;;-3.92;100.00
42111;BME280;27766;52.174;5.456;2022-11-20T00:08:50;101301.00;;;-3.98;100.00
42111;BME280;27766;52.174;5.456;2022-11-20T00:11:20;101310.53;;;-3.95;100.00
42111;BME280;27766;52.174;5.456;2022-11-20T00:13:49;101309.91;;;-3.92;100.00
42111;BME280;27766;52.174;5.456;2022-11-20T00:16:18;101317.72;;;-3.89;100.00
42111;BME280;27766;52.174;5.456;2022-11-20T00:18:46;101316.09;;;-3.89;100.00
42111;BME280;27766;52.174;5.456;2022-11-20T00:21:19;101309.38;;;-3.88;100.00
42111;BME280;27766;52.174;5.456;2022-11-20T00:23:49;101314.94;;;-3.92;100.00
42111;BME280;27766;52.174;5.456;2022-11-20T00:26:18;101316.47;;;-3.94;100.00
42111;BME280;27766;52.174;5.456;2022-11-20T00:28:50;101310.53;;;-3.95;100.00
42111;BME280;27766;52.174;5.456;2022-11-20T00:31:18;101312.28;;;-3.94;100.00
42111;BME280;27766;52.174;5.456;2022-11-20T00:33:45;101317.22;;;-3.95;100.00
42111;BME280;27766;52.174;5.456;2022-11-20T00:36:15;101317.34;;;-3.94;100.00
42111;BME280;27766;52.174;5.456;2022-11-20T00:38:43;101306.06;;;-3.98;100.00
42111;BME280;27766;52.174;5.456;2022-11-20T00:41:13;101306.06;;;-3.98;100.00
42111;BME280;27766;52.174;5.456;2022-11-20T00:43:41;101299.75;;;-4.03;100.00
42111;BME280;27766;52.174;5.456;2022-11-20T00:46:16;101310.53;;;-3.95;100.00
42111;BME280;27766;52.174;5.456;2022-11-20T00:48:44;101292.44;;;-4.00;100.00
42111;BME280;27766;52.174;5.456;2022-11-20T00:51:20;101297.63;;;-3.98;100.00
42111;BME280;27766;52.174;5.456;2022-11-20T00:53:47;101308.34;;;-3.90;100.00
42111;BME280;27766;52.174;5.456;2022-11-20T00:56:16;101304.19;;;-3.90;100.00
42111;BME280;27766;52.174;5.456;2022-11-20T00:58:46;101292.03;;;-3.94;100.00
42111;BME280;27766;52.174;5.456;2022-11-20T01:03:46;101290.28;;;-3.95;100.00
42111;BME280;27766;52.174;5.456;2022-11-20T01:06:19;101294.56;;;-3.94;100.00
42111;BME280;27766;52.174;5.456;2022-11-20T01:08:47;101287.63;;;-3.97;100.00
42111;BME280;27766;52.174;5.456;2022-11-20T01:11:16;101283.94;;;-4.00;100.00
42111;BME280;27766;52.174;5.456;2022-11-20T01:13:45;101284.69;;;-4.01;100.00
42111;BME280;27766;52.174;5.456;2022-11-20T01:16:33;101283.81;;;-4.02;100.00
42111;BME280;27766;52.174;5.456;2022-11-20T01:19:03;101278.66;;;-4.03;100.00
42111;BME280;27766;52.174;5.456;2022-11-20T01:21:32;101277.63;;;-4.05;100.00
42111;BME280;27766;52.174;5.456;2022-11-20T01:24:00;101277.25;;;-4.10;100.00
42111;BME280;27766;52.174;5.456;2022-11-20T01:26:29;101278.34;;;-4.17;100.00
42111;BME280;27766;52.174;5.456;2022-11-20T01:28:58;101273.94;;;-4.19;100.00
42111;BME280;27766;52.174;5.456;2022-11-20T01:31:27;101267.09;;;-4.20;100.00
42111;BME280;27766;52.174;5.456;2022-11-20T01:33:58;101266.63;;;-4.16;100.00
42111;BME280;27766;52.174;5.456;2022-11-20T01:36:27;101263.97;;;-4.18;100.00
42111;BME280;27766;52.174;5.456;2022-11-20T01:38:57;101265.09;;;-4.14;100.00
42111;BME280;27766;52.174;5.456;2022-11-20T01:41:28;101269.66;;;-4.10;100.00
42111;BME280;27766;52.174;5.456;2022-11-20T01:44:18;101267.25;;;-4.08;100.00
42111;BME280;27766;52.174;5.456;2022-11-20T01:46:58;101269.13;;;-4.16;100.00
42111;BME280;27766;52.174;5.456;2022-11-20T01:52:22;101273.53;;;-4.34;100.00
42111;BME280;27766;52.174;5.456;2022-11-20T01:55:11;101270.97;;;-4.45;100.00
42111;BME280;27766;52.174;5.456;2022-11-20T01:57:40;101263.63;;;-4.52;100.00
42111;BME280;27766;52.174;5.456;2022-11-20T02:00:11;101266.63;;;-4.56;100.00
42111;BME280;27766;52.174;5.456;2022-11-20T02:02:41;101257.41;;;-4.55;100.00
42111;BME280;27766;52.174;5.456;2022-11-20T02:07:44;101255.28;;;-4.51;100.00
42111;BME280;27766;52.174;5.456;2022-11-20T02:10:12;101264.13;;;-4.46;100.00
42111;BME280;27766;52.174;5.456;2022-11-20T02:12:39;101265.66;;;-4.48;100.00
42111;BME280;27766;52.174;5.456;2022-11-20T02:15:25;101256.78;;;-4.53;100.00
42111;BME280;27766;52.174;5.456;2022-11-20T02:17:56;101250.59;;;-4.56;100.00
42111;BME280;27766;52.174;5.456;2022-11-20T02:20:23;101243.38;;;-4.62;100.00
42111;BME280;27766;52.174;5.456;2022-11-20T02:22:56;101234.00;;;-4.63;100.00
42111;BME280;27766;52.174;5.456;2022-11-20T02:25:26;101246.16;;;-4.59;100.00
42111;BME280;27766;52.174;5.456;2022-11-20T02:27:54;101244.50;;;-4.58;100.00
42111;BME280;27766;52.174;5.456;2022-11-20T02:30:22;101256.53;;;-4.56;100.00
42111;BME280;27766;52.174;5.456;2022-11-20T02:32:49;101254.50;;;-4.60;100.00
42111;BME280;27766;52.174;5.456;2022-11-20T02:37:48;101252.97;;;-4.68;100.00
42111;BME280;27766;52.174;5.456;2022-11-20T02:40:17;101256.53;;;-4.56;100.00
42111;BME280;27766;52.174;5.456;2022-11-20T02:42:44;101242.91;;;-4.58;100.00
42111;BME280;27766;52.174;5.456;2022-11-20T02:45:11;101228.97;;;-4.63;100.00
42111;BME280;27766;52.174;5.456;2022-11-20T02:47:39;101245.25;;;-4.59;100.00
42111;BME280;27766;52.174;5.456;2022-11-20T02:50:06;101234.56;;;-4.57;100.00
42111;BME280;27766;52.174;5.456;2022-11-20T02:52:33;101243.66;;;-4.59;100.00
42111;BME280;27766;52.174;5.456;2022-11-20T02:55:00;101238.31;;;-4.62;100.00
42111;BME280;27766;52.174;5.456;2022-11-20T02:57:27;101230.50;;;-4.65;100.00
42111;BME280;27766;52.174;5.456;2022-11-20T02:59:54;101227.97;;;-4.65;100.00
42111;BME280;27766;52.174;5.456;2022-11-20T03:02:21;101234.91;;;-4.63;100.00
42111;BME280;27766;52.174;5.456;2022-11-20T03:04:48;101220.91;;;-4.59;100.00
42111;BME280;27766;52.174;5.456;2022-11-20T03:07:16;101218.38;;;-4.59;100.00
42111;BME280;27766;52.174;5.456;2022-11-20T03:09:43;101221.94;;;-4.57;100.00
42111;BME280;27766;52.174;5.456;2022-11-20T03:12:10;101218.59;;;-4.66;100.00
42111;BME280;27766;52.174;5.456;2022-11-20T03:14:37;101206.47;;;-4.70;100.00
42111;BME280;27766;52.174;5.456;2022-11-20T03:17:04;101211.78;;;-4.67;100.00
42111;BME280;27766;52.174;5.456;2022-11-20T03:19:31;101201.41;;;-4.70;100.00
42111;BME280;27766;52.174;5.456;2022-11-20T03:21:58;101199.16;;;-4.67;100.00
42111;BME280;27766;52.174;5.456;2022-11-20T03:24:27;101212.41;;;-4.59;100.00
42111;BME280;27766;52.174;5.456;2022-11-20T03:26:54;101202.19;;;-4.61;100.00
42111;BME280;27766;52.174;5.456;2022-11-20T03:29:21;101213.84;;;-4.53;100.00
42111;BME280;27766;52.174;5.456;2022-11-20T03:31:48;101209.53;;;-4.54;100.00
42111;BME280;27766;52.174;5.456;2022-11-20T03:34:15;101208.66;;;-4.54;100.00
42111;BME280;27766;52.174;5.456;2022-11-20T03:36:42;101208.91;;;-4.51;100.00
42111;BME280;27766;52.174;5.456;2022-11-20T03:39:09;101212.34;;;-4.51;100.00
42111;BME280;27766;52.174;5.456;2022-11-20T03:41:39;101214.34;;;-4.57;100.00
42111;BME280;27766;52.174;5.456;2022-11-20T03:44:08;101207.88;;;-4.64;100.00
42111;BME280;27766;52.174;5.456;2022-11-20T03:46:36;101199.66;;;-4.71;100.00
42111;BME280;27766;52.174;5.456;2022-11-20T03:49:03;101203.34;;;-4.68;100.00
42111;BME280;27766;52.174;5.456;2022-11-20T03:51:32;101200.53;;;-4.71;100.00
42111;BME280;27766;52.174;5.456;2022-11-20T03:54:05;101203.94;;;-4.81;100.00
42111;BME280;27766;52.174;5.456;2022-11-20T03:56:35;101198.47;;;-4.85;100.00
42111;BME280;27766;52.174;5.456;2022-11-20T03:59:03;101192.66;;;-4.84;100.00
42111;BME280;27766;52.174;5.456;2022-11-20T04:01:33;101195.59;;;-4.80;100.00
42111;BME280;27766;52.174;5.456;2022-11-20T04:04:01;101195.59;;;-4.80;100.00
42111;BME280;27766;52.174;5.456;2022-11-20T04:06:36;101195.44;;;-4.81;100.00
42111;BME280;27766;52.174;5.456;2022-11-20T04:09:05;101195.19;;;-4.84;100.00
42111;BME280;27766;52.174;5.456;2022-11-20T04:11:34;101200.47;;;-4.91;100.00
42111;BME280;27766;52.174;5.456;2022-11-20T04:14:05;101192.75;;;-4.93;100.00
42111;BME280;27766;52.174;5.456;2022-11-20T04:16:35;101194.69;;;-4.90;100.00
42111;BME280;27766;52.174;5.456;2022-11-20T04:19:04;101185.56;;;-4.88;100.00
42111;BME280;27766;52.174;5.456;2022-11-20T04:21:32;101175.97;;;-4.93;100.00
42111;BME280;27766;52.174;5.456;2022-11-20T04:23:59;101161.56;;;-4.94;100.00
42111;BME280;27766;52.174;5.456;2022-11-20T04:26:27;101172.59;;;-4.83;100.00
42111;BME280;27766;52.174;5.456;2022-11-20T04:28:55;101178.66;;;-4.81;100.00
42111;BME280;27766;52.174;5.456;2022-11-20T04:31:27;101178.91;;;-4.88;100.00
42111;BME280;27766;52.174;5.456;2022-11-20T04:33:55;101172.31;;;-4.96;100.00
42111;BME280;27766;52.174;5.456;2022-11-20T04:36:26;101178.97;;;-4.97;100.00
42111;BME280;27766;52.174;5.456;2022-11-20T04:38:56;101165.78;;;-5.13;100.00
42111;BME280;27766;52.174;5.456;2022-11-20T04:41:26;101178.69;;;-5.10;100.00
42111;BME280;27766;52.174;5.456;2022-11-20T04:43:56;101162.16;;;-5.06;100.00
42111;BME280;27766;52.174;5.456;2022-11-20T04:46:27;101159.63;;;-5.06;100.00
42111;BME280;27766;52.174;5.456;2022-11-20T04:48:54;101174.09;;;-4.95;100.00
42111;BME280;27766;52.174;5.456;2022-11-20T04:51:21;101162.44;;;-4.93;100.00
42111;BME280;27766;52.174;5.456;2022-11-20T04:53:49;101156.53;;;-4.94;100.00
42111;BME280;27766;52.174;5.456;2022-11-20T04:56:16;101161.94;;;-4.99;100.00
42111;BME280;27766;52.174;5.456;2022-11-20T04:58:43;101157.63;;;-5.11;100.00
42111;BME280;27766;52.174;5.456;2022-11-20T05:01:13;101136.34;;;-5.23;100.00
42111;BME280;27766;52.174;5.456;2022-11-20T05:03:42;101155.84;;;-5.12;100.00
42111;BME280;27766;52.174;5.456;2022-11-20T05:06:11;101146.78;;;-5.10;100.00
42111;BME280;27766;52.174;5.456;2022-11-20T05:08:39;101150.28;;;-5.07;100.00
42111;BME280;27766;52.174;5.456;2022-11-20T05:11:15;101152.69;;;-5.09;100.00
42111;BME280;27766;52.174;5.456;2022-11-20T05:13:42;101157.97;;;-5.16;100.00
42111;BME280;27766;52.174;5.456;2022-11-20T05:16:11;101155.91;;;-5.20;100.00
42111;BME280;27766;52.174;5.456;2022-11-20T05:18:39;101155.44;;;-5.16;100.00
42111;BME280;27766;52.174;5.456;2022-11-20T05:21:08;101145.47;;;-5.15;100.00
42111;BME280;27766;52.174;5.456;2022-11-20T05:23:35;101127.91;;;-5.23;100.00
42111;BME280;27766;52.174;5.456;2022-11-20T05:26:04;101146.72;;;-5.20;100.00
42111;BME280;27766;52.174;5.456;2022-11-20T05:28:31;101144.66;;;-5.24;100.00
42111;BME280;27766;52.174;5.456;2022-11-20T05:31:07;101139.63;;;-5.24;100.00
42111;BME280;27766;52.174;5.456;2022-11-20T05:33:34;101128.03;;;-5.22;100.00
42111;BME280;27766;52.174;5.456;2022-11-20T05:36:03;101126.78;;;-5.17;100.00
42111;BME280;27766;52.174;5.456;2022-11-20T05:38:31;101124.53;;;-5.14;100.00
42111;BME280;27766;52.174;5.456;2022-11-20T05:43:32;101120.75;;;-5.09;100.00
42111;BME280;27766;52.174;5.456;2022-11-20T05:46:01;101114.69;;;-5.11;100.00
42111;BME280;27766;52.174;5.456;2022-11-20T05:48:28;101118.72;;;-5.13;100.00
42111;BME280;27766;52.174;5.456;2022-11-20T05:50:57;101134.84;;;-5.21;100.00
42111;BME280;27766;52.174;5.456;2022-11-20T05:53:25;101133.81;;;-5.33;100.00
42111;BME280;27766;52.174;5.456;2022-11-20T05:55:58;101132.72;;;-5.46;100.00
42111;BME280;27766;52.174;5.456;2022-11-20T05:58:25;101140.28;;;-5.46;100.00
42111;BME280;27766;52.174;5.456;2022-11-20T06:00:52;101152.44;;;-5.42;100.00
42111;BME280;27766;52.174;5.456;2022-11-20T06:03:19;101152.84;;;-5.37;100.00
42111;BME280;27766;52.174;5.456;2022-11-20T06:05:47;101141.09;;;-5.36;100.00
42111;BME280;27766;52.174;5.456;2022-11-20T06:08:14;101151.88;;;-5.29;100.00
42111;BME280;27766;52.174;5.456;2022-11-20T06:10:41;101157.50;;;-5.31;100.00
42111;BME280;27766;52.174;5.456;2022-11-20T06:13:08;101155.22;;;-5.38;100.00
42111;BME280;27766;52.174;5.456;2022-11-20T06:15:35;101153.31;;;-5.41;100.00
42111;BME280;27766;52.174;5.456;2022-11-20T06:18:02;101149.28;;;-5.39;100.00
42111;BME280;27766;52.174;5.456;2022-11-20T06:20:29;101146.88;;;-5.37;100.00
42111;BME280;27766;52.174;5.456;2022-11-20T06:22:56;101161.00;;;-5.40;100.00
42111;BME280;27766;52.174;5.456;2022-11-20T06:25:23;101157.69;;;-5.49;100.00
42111;BME280;27766;52.174;5.456;2022-11-20T06:27:51;101152.09;;;-5.55;100.00
42111;BME280;27766;52.174;5.456;2022-11-20T06:30:18;101159.66;;;-5.55;100.00
42111;BME280;27766;52.174;5.456;2022-11-20T06:32:45;101157.44;;;-5.52;100.00
42111;BME280;27766;52.174;5.456;2022-11-20T06:35:12;101130.50;;;-5.62;100.00
42111;BME280;27766;52.174;5.456;2022-11-20T06:37:39;101155.22;;;-5.38;100.00
42111;BME280;27766;52.174;5.456;2022-11-20T06:40:07;101159.03;;;-5.33;100.00
42111;BME280;27766;52.174;5.456;2022-11-20T06:42:34;101154.34;;;-5.39;100.00
42111;BME280;27766;52.174;5.456;2022-11-20T06:45:01;101159.09;;;-5.42;100.00
42111;BME280;27766;52.174;5.456;2022-11-20T06:47:28;101162.94;;;-5.37;100.00
42111;BME280;27766;52.174;5.456;2022-11-20T06:49:55;101164.84;;;-5.34;100.00
42111;BME280;27766;52.174;5.456;2022-11-20T06:52:22;101154.75;;;-5.34;100.00
42111;BME280;27766;52.174;5.456;2022-11-20T06:54:49;101153.91;;;-5.25;100.00
42111;BME280;27766;52.174;5.456;2022-11-20T06:57:17;101131.13;;;-5.35;100.00
42111;BME280;27766;52.174;5.456;2022-11-20T06:59:43;101145.28;;;-5.27;100.00
42111;BME280;27766;52.174;5.456;2022-11-20T07:02:11;101146.81;;;-5.29;100.00
42111;BME280;27766;52.174;5.456;2022-11-20T07:04:39;101146.53;;;-5.32;100.00
42111;BME280;27766;52.174;5.456;2022-11-20T07:07:06;101150.44;;;-5.35;100.00
42111;BME280;27766;52.174;5.456;2022-11-20T07:09:33;101143.34;;;-5.40;100.00
42111;BME280;27766;52.174;5.456;2022-11-20T07:12:00;101128.31;;;-5.48;100.00
42111;BME280;27766;52.174;5.456;2022-11-20T07:14:28;101145.63;;;-5.43;100.00
42111;BME280;27766;52.174;5.456;2022-11-20T07:16:55;101136.00;;;-5.47;100.00
42111;BME280;27766;52.174;5.456;2022-11-20T07:19:22;101146.38;;;-5.44;100.00
42111;BME280;27766;52.174;5.456;2022-11-20T07:21:50;101144.88;;;-5.42;100.00
42111;BME280;27766;52.174;5.456;2022-11-20T07:24:17;101140.69;;;-5.41;100.00
42111;BME280;27766;52.174;5.456;2022-11-20T07:26:48;101141.59;;;-5.41;100.00
42111;BME280;27766;52.174;5.456;2022-11-20T07:29:18;101139.31;;;-5.37;100.00
42111;BME280;27766;52.174;5.456;2022-11-20T07:31:45;101131.28;;;-5.33;100.00
42111;BME280;27766;52.174;5.456;2022-11-20T07:34:13;101121.94;;;-5.34;100.00
42111;BME280;27766;52.174;5.456;2022-11-20T07:36:40;101115.75;;;-5.28;100.00
42111;BME280;27766;52.174;5.456;2022-11-20T07:39:07;101118.28;;;-5.28;100.00
42111;BME280;27766;52.174;5.456;2022-11-20T07:41:34;101121.22;;;-5.23;100.00
42111;BME280;27766;52.174;5.456;2022-11-20T07:44:01;101109.72;;;-5.19;100.00
42111;BME280;27766;52.174;5.456;2022-11-20T07:46:28;101117.59;;;-5.16;100.00
42111;BME280;27766;52.174;5.456;2022-11-20T07:48:55;101114.53;;;-5.12;100.00
42111;BME280;27766;52.174;5.456;2022-11-20T07:51:22;101117.22;;;-5.11;100.00
42111;BME280;27766;52.174;5.456;2022-11-20T07:53:51;101127.09;;;-5.03;100.00
42111;BME280;27766;52.174;5.456;2022-11-20T07:56:19;101122.28;;;-5.00;100.00
42111;BME280;27766;52.174;5.456;2022-11-20T07:58:49;101129.03;;;-4.90;100.00
42111;BME280;27766;52.174;5.456;2022-11-20T08:01:17;101125.34;;;-4.84;100.00
42111;BME280;27766;52.174;5.456;2022-11-20T08:03:44;101133.44;;;-4.78;100.00
42111;BME280;27766;52.174;5.456;2022-11-20T08:06:11;101130.44;;;-4.73;100.00
42111;BME280;27766;52.174;5.456;2022-11-20T08:08:38;101126.91;;;-4.65;100.00
42111;BME280;27766;52.174;5.456;2022-11-20T08:11:09;101104.19;;;-4.65;100.00
42111;BME280;27766;52.174;5.456;2022-11-20T08:13:54;101116.31;;;-4.51;100.00
42111;BME280;27766;52.174;5.456;2022-11-20T08:16:45;101109.34;;;-4.43;100.00
42111;BME280;27766;52.174;5.456;2022-11-20T08:19:13;101105.94;;;-4.43;100.00
42111;BME280;27766;52.174;5.456;2022-11-20T08:21:41;101115.91;;;-4.35;100.00
42111;BME280;27766;52.174;5.456;2022-11-20T08:24:09;101106.31;;;-4.29;100.00
42111;BME280;27766;52.174;5.456;2022-11-20T08:26:38;101104.91;;;-4.25;100.00
42111;BME280;27766;52.174;5.456;2022-11-20T08:29:06;101102.00;;;-4.19;100.00
42111;BME280;27766;52.174;5.456;2022-11-20T08:31:33;101098.56;;;-4.09;100.00
42111;BME280;27766;52.174;5.456;2022-11-20T08:34:00;101101.38;;;-4.06;100.00
42111;BME280;27766;52.174;5.456;2022-11-20T08:36:34;101092.50;;;-4.01;100.00
42111;BME280;27766;52.174;5.456;2022-11-20T08:39:02;101104.88;;;-3.94;100.00
42111;BME280;27766;52.174;5.456;2022-11-20T08:41:30;101097.44;;;-3.92;100.00
42111;BME280;27766;52.174;5.456;2022-11-20T08:44:04;101106.63;;;-3.83;100.00
42111;BME280;27766;52.174;5.456;2022-11-20T08:46:39;101107.66;;;-3.80;100.00
42111;BME280;27766;52.174;5.456;2022-11-20T08:49:10;101105.34;;;-3.77;100.00
42111;BME280;27766;52.174;5.456;2022-11-20T08:51:38;101094.25;;;-3.79;100.00
42111;BME280;27766;52.174;5.456;2022-11-20T08:54:05;101099.53;;;-3.76;100.00
42111;BME280;27766;52.174;5.456;2022-11-20T08:56:33;101102.81;;;-3.67;100.00
42111;BME280;27766;52.174;5.456;2022-11-20T08:59:01;101090.75;;;-3.59;100.00
42111;BME280;27766;52.174;5.456;2022-11-20T09:01:48;101098.94;;;-3.52;100.00
42111;BME280;27766;52.174;5.456;2022-11-20T09:04:15;101087.78;;;-3.43;100.00
42111;BME280;27766;52.174;5.456;2022-11-20T09:06:42;101095.09;;;-3.36;100.00
42111;BME280;27766;52.174;5.456;2022-11-20T09:09:10;101093.91;;;-3.29;100.00
42111;BME280;27766;52.174;5.456;2022-11-20T09:11:37;101086.81;;;-3.23;100.00
42111;BME280;27766;52.174;5.456;2022-11-20T09:14:04;101072.47;;;-3.23;100.00
42111;BME280;27766;52.174;5.456;2022-11-20T09:16:32;101077.50;;;-3.12;100.00
42111;BME280;27766;52.174;5.456;2022-11-20T09:18:59;101070.88;;;-3.10;100.00
42111;BME280;27766;52.174;5.456;2022-11-20T09:21:47;101082.50;;;-3.02;100.00
42111;BME280;27766;52.174;5.456;2022-11-20T09:24:15;101066.72;;;-3.10;100.00
42111;BME280;27766;52.174;5.456;2022-11-20T09:26:42;101079.53;;;-2.96;100.00
42111;BME280;27766;52.174;5.456;2022-11-20T09:29:10;101070.31;;;-2.96;100.00
42111;BME280;27766;52.174;5.456;2022-11-20T09:31:37;101071.44;;;-2.92;100.00
42111;BME280;27766;52.174;5.456;2022-11-20T09:34:05;101050.94;;;-2.95;100.00
42111;BME280;27766;52.174;5.456;2022-11-20T09:36:32;101050.25;;;-2.93;100.00
42111;BME280;27766;52.174;5.456;2022-11-20T09:38:59;101036.72;;;-2.93;100.00
42111;BME280;27766;52.174;5.456;2022-11-20T09:41:46;101029.94;;;-2.82;100.00
42111;BME280;27766;52.174;5.456;2022-11-20T09:47:32;101033.19;;;-2.61;100.00
42111;BME280;27766;52.174;5.456;2022-11-20T09:50:34;101034.31;;;-2.58;100.00
42111;BME280;27766;52.174;5.456;2022-11-20T09:53:41;101028.16;;;-2.49;100.00
42111;BME280;27766;52.174;5.456;2022-11-20T09:56:14;101003.22;;;-2.55;100.00
42111;BME280;27766;52.174;5.456;2022-11-20T09:58:57;101034.78;;;-2.40;100.00
42111;BME280;27766;52.174;5.456;2022-11-20T10:01:30;101014.91;;;-2.45;100.00
42111;BME280;27766;52.174;5.456;2022-11-20T10:09:52;101024.09;;;-2.12;100.00
42111;BME280;27766;52.174;5.456;2022-11-20T10:13:23;101018.78;;;-2.03;100.00
42111;BME280;27766;52.174;5.456;2022-11-20T10:15:33;101017.03;;;-1.92;100.00
42111;BME280;27766;52.174;5.456;2022-11-20T10:23:44;100997.25;;;-1.84;100.00
42111;BME280;27766;52.174;5.456;2022-11-20T10:26:26;100994.81;;;-1.83;100.00
42111;BME280;27766;52.174;5.456;2022-11-20T10:31:46;100988.09;;;-1.70;100.00
42111;BME280;27766;52.174;5.456;2022-11-20T10:34:20;100983.66;;;-1.61;100.00
42111;BME280;27766;52.174;5.456;2022-11-20T10:36:56;100978.78;;;-1.58;100.00
42111;BME280;27766;52.174;5.456;2022-11-20T10:42:14;100971.13;;;-1.46;100.00
42111;BME280;27766;52.174;5.456;2022-11-20T10:44:49;100960.97;;;-1.46;100.00
42111;BME280;27766;52.174;5.456;2022-11-20T10:47:32;100959.16;;;-1.35;100.00
42111;BME280;27766;52.174;5.456;2022-11-20T10:50:08;100956.06;;;-1.31;100.00
42111;BME280;27766;52.174;5.456;2022-11-20T10:55:50;100945.03;;;-1.18;100.00
42111;BME280;27766;52.174;5.456;2022-11-20T10:58:36;100941.38;;;-1.10;100.00
42111;BME280;27766;52.174;5.456;2022-11-20T11:01:18;100930.75;;;-1.04;100.00
42111;BME280;27766;52.174;5.456;2022-11-20T11:03:51;100915.03;;;-0.99;100.00
42111;BME280;27766;52.174;5.456;2022-11-20T11:06:32;100920.81;;;-0.88;100.00
42111;BME280;27766;52.174;5.456;2022-11-20T11:09:06;100926.97;;;-0.84;100.00
42111;BME280;27766;52.174;5.456;2022-11-20T11:11:38;100922.19;;;-0.80;100.00
42111;BME280;27766;52.174;5.456;2022-11-20T11:14:13;100910.25;;;-0.81;100.00
42111;BME280;27766;52.174;5.456;2022-11-20T11:16:52;100917.59;;;-0.72;100.00
42111;BME280;27766;52.174;5.456;2022-11-20T11:19:21;100903.91;;;-0.74;100.00
42111;BME280;27766;52.174;5.456;2022-11-20T11:21:54;100894.13;;;-0.68;100.00
42111;BME280;27766;52.174;5.456;2022-11-20T11:24:24;100888.06;;;-0.70;100.00
42111;BME280;27766;52.174;5.456;2022-11-20T11:27:14;100873.81;;;-0.68;100.00
42111;BME280;27766;52.174;5.456;2022-11-20T11:29:47;100886.22;;;-0.59;100.00
42111;BME280;27766;52.174;5.456;2022-11-20T11:32:18;100869.31;;;-0.58;100.00
42111;BME280;27766;52.174;5.456;2022-11-20T11:35:05;100865.69;;;-0.49;100.00
42111;BME280;27766;52.174;5.456;2022-11-20T11:37:35;100870.28;;;-0.43;100.00
42111;BME280;27766;52.174;5.456;2022-11-20T11:40:05;100860.09;;;-0.43;100.00
42111;BME280;27766;52.174;5.456;2022-11-20T11:42:57;100853.84;;;-0.35;100.00
42111;BME280;27766;52.174;5.456;2022-11-20T11:45:25;100856.56;;;-0.32;100.00
42111;BME280;27766;52.174;5.456;2022-11-20T11:47:54;100830.94;;;-0.35;100.00
42111;BME280;27766;52.174;5.456;2022-11-20T11:50:27;100842.66;;;-0.23;100.00
42111;BME280;27766;52.174;5.456;2022-11-20T11:53:09;100825.53;;;-0.26;100.00
42111;BME280;27766;52.174;5.456;2022-11-20T11:55:53;100824.16;;;-0.21;100.00
42111;BME280;27766;52.174;5.456;2022-11-20T12:03:40;100820.78;;;-0.06;100.00
42111;BME280;27766;52.174;5.456;2022-11-20T12:06:14;100813.41;;;-0.02;100.00
42111;BME280;27766;52.174;5.456;2022-11-20T12:08:55;100814.59;;;0.04;100.00
42111;BME280;27766;52.174;5.456;2022-11-20T12:16:51;100794.59;;;0.10;100.00
42111;BME280;27766;52.174;5.456;2022-11-20T12:19:19;100783.00;;;0.15;100.00
42111;BME280;27766;52.174;5.456;2022-11-20T12:27:40;100785.47;;;0.28;100.00
42111;BME280;27766;52.174;5.456;2022-11-20T12:30:15;100776.91;;;0.26;100.00
42111;BME280;27766;52.174;5.456;2022-11-20T12:41:32;100774.63;;;0.46;100.00
42111;BME280;27766;52.174;5.456;2022-11-20T12:47:24;100774.63;;;0.46;100.00
42111;BME280;27766;52.174;5.456;2022-11-20T12:53:36;100754.25;;;0.46;100.00
42111;BME280;27766;52.174;5.456;2022-11-20T12:59:02;100734.72;;;0.46;100.00
42111;BME280;27766;52.174;5.456;2022-11-20T13:01:53;100690.50;;;0.44;100.00
42111;BME280;27766;52.174;5.456;2022-11-20T13:07:14;100705.06;;;0.47;100.00
42111;BME280;27766;52.174;5.456;2022-11-20T13:09:48;100689.44;;;0.41;100.00
42111;BME280;27766;52.174;5.456;2022-11-20T13:17:41;100680.28;;;0.59;100.00
42111;BME280;27766;52.174;5.456;2022-11-20T13:20:16;100674.56;;;0.63;100.00
42111;BME280;27766;52.174;5.456;2022-11-20T13:22:48;100671.47;;;0.69;100.00
42111;BME280;27766;52.174;5.456;2022-11-20T13:25:28;100655.50;;;0.72;100.00
42111;BME280;27766;52.174;5.456;2022-11-20T13:27:57;100654.59;;;0.71;100.00
42111;BME280;27766;52.174;5.456;2022-11-20T13:30:26;100657.94;;;0.70;100.00
42111;BME280;27766;52.174;5.456;2022-11-20T13:38:07;100647.03;;;0.73;100.00
42111;BME280;27766;52.174;5.456;2022-11-20T13:40:51;100647.03;;;0.73;100.00
42111;BME280;27766;52.174;5.456;2022-11-20T13:43:37;100650.00;;;0.81;100.00
42111;BME280;27766;52.174;5.456;2022-11-20T13:46:07;100656.88;;;0.82;100.00
42111;BME280;27766;52.174;5.456;2022-11-20T13:48:43;100650.66;;;0.76;100.00
42111;BME280;27766;52.174;5.456;2022-11-20T13:54:21;100640.34;;;0.75;100.00
42111;BME280;27766;52.174;5.456;2022-11-20T14:02:37;100605.59;;;0.75;100.00
42111;BME280;27766;52.174;5.456;2022-11-20T14:05:05;100607.09;;;0.72;100.00
42111;BME280;27766;52.174;5.456;2022-11-20T14:07:39;100616.09;;;0.82;100.00
42111;BME280;27766;52.174;5.456;2022-11-20T14:10:26;100609.88;;;0.76;100.00
42111;BME280;27766;52.174;5.456;2022-11-20T14:12:58;100622.06;;;0.82;100.00
42111;BME280;27766;52.174;5.456;2022-11-20T14:15:36;100617.59;;;0.78;100.00
42111;BME280;27766;52.174;5.456;2022-11-20T14:18:13;100606.97;;;0.70;100.00
42111;BME280;27766;52.174;5.456;2022-11-20T14:20:41;100601.81;;;0.69;100.00
42111;BME280;27766;52.174;5.456;2022-11-20T14:23:10;100580.59;;;0.53;100.00
42111;BME280;27766;52.174;5.456;2022-11-20T14:25:42;100571.06;;;0.49;100.00
42111;BME280;27766;52.174;5.456;2022-11-20T14:28:24;100574.06;;;0.58;100.00
42111;BME280;27766;52.174;5.456;2022-11-20T14:30:52;100553.63;;;0.57;100.00
42111;BME280;27766;52.174;5.456;2022-11-20T14:33:21;100538.34;;;0.57;100.00